createdAt,value
2022-08-12T00:01:01.271Z,15.63
2022-08-12T00:03:51.259Z,15.57
2022-08-12T00:06:41.146Z,15.51
2022-08-12T00:09:31.580Z,15.50
2022-08-12T00:12:21.096Z,15.52
2022-08-12T00:15:09.794Z,15.57
2022-08-12T00:17:59.336Z,15.60
2022-08-12T00:20:47.437Z,15.62
2022-08-12T00:23:40.335Z,15.64
2022-08-12T00:26:32.190Z,15.65
2022-08-12T00:29:22.262Z,15.66
2022-08-12T00:32:10.883Z,15.65
2022-08-12T00:35:09.077Z,15.65
2022-08-12T00:38:01.218Z,15.63
2022-08-12T00:40:51.489Z,15.60
2022-08-12T00:43:24.269Z,15.59
2022-08-12T00:46:16.342Z,15.56
2022-08-12T00:48:47.040Z,15.55
2022-08-12T00:51:20.678Z,15.54
2022-08-12T00:53:50.543Z,15.52
2022-08-12T00:56:22.957Z,15.46
2022-08-12T00:58:54.034Z,15.42
2022-08-12T01:01:26.322Z,15.40
2022-08-12T01:04:16.672Z,15.38
2022-08-12T01:07:23.646Z,15.31
2022-08-12T01:10:14.818Z,15.20
2022-08-12T01:12:54.775Z,15.11
2022-08-12T01:15:43.117Z,15.01
2022-08-12T01:18:15.922Z,14.90
2022-08-12T01:20:52.392Z,14.82
2022-08-12T01:23:46.837Z,14.78
2022-08-12T01:26:23.029Z,14.77
2022-08-12T01:28:58.641Z,14.78
2022-08-12T01:31:31.292Z,14.80
2022-08-12T01:34:36.585Z,14.83
2022-08-12T01:37:07.981Z,14.88
2022-08-12T01:40:34.714Z,14.92
2022-08-12T01:42:51.585Z,14.97
2022-08-12T01:45:25.163Z,14.97
2022-08-12T01:48:17.879Z,14.95
2022-08-12T01:51:40.732Z,14.93
2022-08-12T01:54:14.337Z,14.95
2022-08-12T01:57:01.961Z,14.94
2022-08-12T01:59:47.512Z,14.97
2022-08-12T02:02:33.886Z,15.00
2022-08-12T02:05:35.010Z,15.04
2022-08-12T02:08:52.443Z,15.08
2022-08-12T02:11:29.554Z,15.19
2022-08-12T02:14:37.079Z,15.26
2022-08-12T02:17:55.148Z,15.34
2022-08-12T02:20:54.376Z,15.39
2022-08-12T02:23:28.335Z,15.42
2022-08-12T02:26:05.119Z,15.45
2022-08-12T02:28:39.996Z,15.47
2022-08-12T02:31:13.502Z,15.49
2022-08-12T02:33:49.318Z,15.52
2022-08-12T02:36:19.427Z,15.55
2022-08-12T02:38:54.474Z,15.59
2022-08-12T02:41:29.091Z,15.60
2022-08-12T02:44:08.070Z,15.57
2022-08-12T02:46:40.426Z,15.51
2022-08-12T02:49:20.679Z,15.49
2022-08-12T02:51:51.914Z,15.48
2022-08-12T02:54:23.873Z,15.47
2022-08-12T02:56:55.615Z,15.49
2022-08-12T02:59:27.806Z,15.54
2022-08-12T03:02:03.925Z,15.61
2022-08-12T03:04:44.878Z,15.68
2022-08-12T03:07:59.330Z,15.73
2022-08-12T03:10:39.960Z,15.80
2022-08-12T03:13:18.077Z,15.86
2022-08-12T03:15:48.901Z,15.90
2022-08-12T03:18:30.485Z,15.95
2022-08-12T03:21:02.452Z,16.01
2022-08-12T03:23:32.009Z,16.04
2022-08-12T03:26:04.352Z,16.09
2022-08-12T03:28:51.371Z,16.13
2022-08-12T03:31:28.907Z,16.19
2022-08-12T03:34:05.700Z,16.24
2022-08-12T03:36:37.362Z,16.28
2022-08-12T03:39:16.843Z,16.36
2022-08-12T03:42:05.070Z,16.44
2022-08-12T03:45:13.436Z,16.53
2022-08-12T03:48:09.069Z,16.62
2022-08-12T03:50:59.531Z,16.69
2022-08-12T03:53:49.193Z,16.72
2022-08-12T03:56:38.433Z,16.74
2022-08-12T03:59:27.053Z,16.84
2022-08-12T04:01:59.566Z,16.96
2022-08-12T04:04:35.470Z,17.07
2022-08-12T04:07:09.201Z,17.16
2022-08-12T04:09:44.100Z,17.24
2022-08-12T04:12:33.382Z,17.35
2022-08-12T04:15:05.590Z,17.48
2022-08-12T04:17:35.292Z,17.58
2022-08-12T04:20:11.662Z,17.65
2022-08-12T04:22:41.971Z,17.76
2022-08-12T04:25:13.464Z,17.86
2022-08-12T04:27:47.365Z,17.98
2022-08-12T04:30:32.118Z,18.07
2022-08-12T04:33:06.979Z,18.09
2022-08-12T04:35:37.859Z,18.11
2022-08-12T04:38:09.336Z,18.09
2022-08-12T04:40:40.287Z,18.12
2022-08-12T04:43:59.672Z,18.13
2022-08-12T04:46:03.198Z,18.14
2022-08-12T04:48:35.155Z,18.20
2022-08-12T04:51:07.747Z,18.36
2022-08-12T04:53:38.618Z,18.46
2022-08-12T04:56:08.836Z,18.61
2022-08-12T04:58:39.246Z,18.73
2022-08-12T05:01:08.378Z,18.85
2022-08-12T05:03:46.081Z,18.99
2022-08-12T05:06:26.793Z,19.11
2022-08-12T05:09:01.908Z,19.25
2022-08-12T05:11:54.238Z,19.35
2022-08-12T05:14:24.955Z,19.48
2022-08-12T05:16:54.600Z,19.56
2022-08-12T05:19:24.145Z,19.63
2022-08-12T05:21:54.696Z,19.72
2022-08-12T05:24:24.345Z,19.82
2022-08-12T05:26:53.567Z,19.90
2022-08-12T05:30:06.607Z,20.11
2022-08-12T05:32:20.882Z,20.41
2022-08-12T05:34:51.889Z,20.64
2022-08-12T05:37:23.125Z,20.89
2022-08-12T05:39:55.112Z,21.16
2022-08-12T05:42:34.325Z,21.43
2022-08-12T05:45:04.887Z,21.66
2022-08-12T05:47:52.797Z,21.81
2022-08-12T05:50:23.115Z,22.02
2022-08-12T05:52:53.979Z,22.26
2022-08-12T05:55:26.997Z,22.41
2022-08-12T05:58:02.479Z,22.56
2022-08-12T06:00:32.853Z,22.65
2022-08-12T06:03:06.465Z,22.78
2022-08-12T06:05:43.210Z,22.93
2022-08-12T06:08:26.077Z,23.02
2022-08-12T06:10:57.495Z,23.11
2022-08-12T06:13:53.796Z,23.29
2022-08-12T06:16:21.969Z,23.49
2022-08-12T06:18:51.796Z,23.68
2022-08-12T06:21:23.993Z,23.87
2022-08-12T06:23:54.961Z,23.98
2022-08-12T06:26:25.730Z,24.10
2022-08-12T06:29:02.533Z,24.13
2022-08-12T06:31:33.547Z,24.09
2022-08-12T06:35:26.416Z,24.15
2022-08-12T06:36:57.474Z,24.31
2022-08-12T06:39:27.701Z,24.51
2022-08-12T06:42:32.021Z,24.76
2022-08-12T06:45:02.895Z,24.98
2022-08-12T06:47:37.181Z,25.01
2022-08-12T06:50:09.263Z,24.95
2022-08-12T06:52:38.517Z,24.87
2022-08-12T06:55:08.724Z,24.83
2022-08-12T06:58:07.579Z,24.74
2022-08-12T07:00:40.357Z,24.70
2022-08-12T07:03:23.218Z,24.83
2022-08-12T07:05:54.224Z,24.99
2022-08-12T07:08:30.978Z,25.12
2022-08-12T07:11:02.254Z,25.16
2022-08-12T07:14:12.434Z,25.23
2022-08-12T07:16:54.145Z,25.30
2022-08-12T07:19:25.575Z,25.38
2022-08-12T07:22:14.402Z,25.56
2022-08-12T07:25:05.212Z,25.76
2022-08-12T07:28:16.619Z,26.00
2022-08-12T07:30:52.046Z,26.15
2022-08-12T07:33:24.583Z,26.24
2022-08-12T07:35:56.161Z,26.42
2022-08-12T07:38:52.180Z,26.62
2022-08-12T07:41:29.261Z,26.88
2022-08-12T07:44:05.169Z,27.07
2022-08-12T07:47:51.191Z,27.30
2022-08-12T07:50:23.963Z,27.85
2022-08-12T07:52:55.021Z,28.33
2022-08-12T07:55:25.233Z,28.91
2022-08-12T07:58:00.681Z,29.39
2022-08-12T08:00:35.602Z,29.64
2022-08-12T08:03:07.153Z,29.84
2022-08-12T08:05:39.617Z,30.38
2022-08-12T08:08:19.938Z,30.98
2022-08-12T08:10:53.446Z,32.50
2022-08-12T08:13:23.603Z,34.12
2022-08-12T08:16:03.574Z,35.39
2022-08-12T08:18:38.054Z,35.75
2022-08-12T08:21:11.255Z,35.67
2022-08-12T08:24:07.176Z,37.13
2022-08-12T08:27:07.730Z,39.31
2022-08-12T08:29:48.903Z,40.67
2022-08-12T08:33:23.166Z,41.23
2022-08-12T08:36:35.285Z,42.25
2022-08-12T08:40:26.082Z,42.95
2022-08-12T08:43:58.750Z,42.50
2022-08-12T08:51:04.111Z,43.15
2022-08-12T08:57:13.781Z,42.88
2022-08-12T09:00:54.260Z,42.06
2022-08-12T09:05:09.308Z,41.03
2022-08-12T09:06:36.977Z,39.98
2022-08-12T09:10:02.378Z,41.08
2022-08-12T09:12:54.441Z,42.38
2022-08-12T09:42:34.284Z,44.20
2022-08-12T09:46:21.921Z,43.71
2022-08-12T09:49:44.703Z,41.14
2022-08-12T09:53:38.294Z,41.34
2022-08-12T10:00:15.323Z,41.12
2022-08-12T10:04:04.968Z,41.45
2022-08-12T10:09:57.926Z,39.88
2022-08-12T10:13:07.178Z,39.41
2022-08-12T10:16:05.249Z,39.13
2022-08-12T10:19:21.681Z,37.56
2022-08-12T11:40:03.506Z,30.71
2022-08-12T11:42:46.315Z,31.18
2022-08-12T11:45:20.005Z,31.87
2022-08-12T11:48:51.401Z,31.96
2022-08-12T12:19:45.461Z,33.27
2022-08-12T12:22:23.069Z,32.96
2022-08-12T12:25:13.832Z,32.46
2022-08-12T12:28:04.668Z,32.05
2022-08-12T12:38:04.146Z,31.94
2022-08-12T12:46:46.077Z,32.39
2022-08-12T12:50:06.120Z,32.46
2022-08-12T12:52:42.754Z,32.19
2022-08-12T12:55:13.611Z,32.12
2022-08-12T12:58:00.051Z,32.19
2022-08-12T13:01:26.975Z,31.95
2022-08-12T13:04:26.463Z,31.40
2022-08-12T13:07:02.412Z,31.35
2022-08-12T13:09:39.445Z,31.45
2022-08-12T13:12:18.400Z,31.19
2022-08-12T13:15:47.784Z,30.95
2022-08-12T13:49:55.128Z,29.82
2022-08-12T13:52:38.659Z,29.78
2022-08-12T13:55:16.089Z,29.70
2022-08-12T16:07:54.479Z,30.24
2022-08-12T16:10:30.987Z,30.16
2022-08-12T16:13:06.480Z,30.13
2022-08-12T16:15:42.236Z,30.08
2022-08-12T16:18:20.327Z,30.02
2022-08-12T16:20:52.353Z,29.86
2022-08-12T16:23:51.704Z,29.65
2022-08-12T16:26:20.020Z,29.47
2022-08-12T16:28:49.822Z,29.26
2022-08-12T16:31:24.056Z,29.11
2022-08-12T16:34:00.282Z,29.00
2022-08-12T16:36:31.541Z,28.90
2022-08-12T16:39:04.803Z,28.81
2022-08-12T16:41:39.923Z,28.74
2022-08-12T16:44:11.658Z,28.67
2022-08-12T16:46:40.687Z,28.65
2022-08-12T16:49:36.635Z,28.65
2022-08-12T16:52:16.411Z,28.72
2022-08-12T16:54:48.422Z,28.81
2022-08-12T16:57:35.215Z,28.88
2022-08-12T17:00:09.662Z,28.97
2022-08-12T17:02:50.529Z,29.03
2022-08-12T17:05:31.256Z,29.06
2022-08-12T17:08:02.183Z,29.06
2022-08-12T17:10:35.982Z,29.04
2022-08-12T17:13:10.559Z,29.01
2022-08-12T17:15:56.912Z,28.96
2022-08-12T17:18:45.505Z,28.88
2022-08-12T17:21:41.536Z,28.78
2022-08-12T17:24:16.947Z,28.66
2022-08-12T17:26:49.321Z,28.51
2022-08-12T17:29:24.278Z,28.41
2022-08-12T17:32:05.283Z,28.31
2022-08-12T17:34:53.403Z,28.15
2022-08-12T17:37:25.984Z,28.06
2022-08-12T17:40:12.567Z,27.94
2022-08-12T17:42:48.244Z,27.83
2022-08-12T17:45:20.149Z,27.74
2022-08-12T17:48:01.869Z,27.71
2022-08-12T17:50:38.241Z,27.68
2022-08-12T17:53:10.923Z,27.58
2022-08-12T17:55:48.099Z,27.43
2022-08-12T17:58:37.443Z,27.27
2022-08-12T18:01:11.438Z,27.14
2022-08-12T18:04:05.616Z,27.03
2022-08-12T18:06:38.305Z,26.89
2022-08-12T18:09:13.136Z,26.80
2022-08-12T18:12:07.378Z,26.73
2022-08-12T18:14:41.026Z,26.62
2022-08-12T18:17:28.921Z,26.57
2022-08-12T18:20:06.319Z,26.49
2022-08-12T18:22:38.525Z,26.42
2022-08-12T18:26:13.775Z,26.38
2022-08-12T18:28:18.825Z,26.32
2022-08-12T18:30:56.652Z,26.29
2022-08-12T18:33:41.684Z,26.26
2022-08-12T18:36:22.409Z,26.19
2022-08-12T18:38:59.734Z,26.13
2022-08-12T18:41:36.095Z,25.99
2022-08-12T18:44:10.719Z,25.87
2022-08-12T18:47:10.066Z,25.79
2022-08-12T18:49:50.895Z,25.73
2022-08-12T18:52:26.621Z,25.70
2022-08-12T18:55:02.228Z,25.70
2022-08-12T18:57:46.467Z,25.68
2022-08-12T19:00:33.569Z,25.65
2022-08-12T19:03:09.241Z,25.59
2022-08-12T19:06:01.820Z,25.55
2022-08-12T19:08:31.673Z,25.52
2022-08-12T19:11:23.235Z,25.46
2022-08-12T19:14:15.951Z,25.36
2022-08-12T19:16:56.091Z,25.30
2022-08-12T19:19:41.306Z,25.18
2022-08-12T19:22:12.411Z,25.01
2022-08-12T19:25:18.409Z,24.86
2022-08-12T19:27:52.809Z,24.77
2022-08-12T19:30:55.111Z,24.70
2022-08-12T19:33:25.797Z,24.65
2022-08-12T19:36:08.246Z,24.62
2022-08-12T19:38:57.157Z,24.57
2022-08-12T19:41:42.588Z,24.48
2022-08-12T19:44:26.636Z,24.37
2022-08-12T19:47:04.027Z,24.33
2022-08-12T19:49:36.563Z,24.30
2022-08-12T19:52:12.405Z,24.21
2022-08-12T19:54:56.026Z,24.12
2022-08-12T19:57:26.736Z,24.04
2022-08-12T20:00:04.015Z,23.92
2022-08-12T20:02:37.270Z,23.85
2022-08-12T20:06:05.931Z,23.79
2022-08-12T20:08:00.636Z,23.66
2022-08-12T20:10:36.416Z,23.57
2022-08-12T20:13:18.230Z,23.50
2022-08-12T20:15:52.070Z,23.44
2022-08-12T20:18:53.585Z,23.39
2022-08-12T20:21:24.227Z,23.31
2022-08-12T20:24:00.943Z,23.25
2022-08-12T20:26:36.027Z,23.20
2022-08-12T20:29:11.178Z,23.14
2022-08-12T20:31:41.428Z,23.11
2022-08-12T20:34:14.096Z,23.08
2022-08-12T20:36:57.296Z,23.09
2022-08-12T20:39:53.620Z,23.10
2022-08-12T20:42:25.097Z,23.09
2022-08-12T20:45:01.841Z,23.11
2022-08-12T20:47:46.627Z,23.15
2022-08-12T20:50:19.457Z,23.19
2022-08-12T20:52:49.983Z,23.20
2022-08-12T20:55:20.225Z,23.22
2022-08-12T20:58:02.442Z,23.25
2022-08-12T21:00:36.574Z,23.29
2022-08-12T21:03:27.017Z,23.30
2022-08-12T21:06:16.107Z,23.29
2022-08-12T21:08:48.365Z,23.27
2022-08-12T21:11:23.208Z,23.26
2022-08-12T21:13:59.343Z,23.25
2022-08-12T21:16:38.914Z,23.24
2022-08-12T21:19:22.197Z,23.27
2022-08-12T21:21:58.824Z,23.28
2022-08-12T21:24:32.406Z,23.28
2022-08-12T21:27:07.253Z,23.27
2022-08-12T21:29:54.968Z,23.27
2022-08-12T21:32:39.613Z,23.26
2022-08-12T21:35:10.474Z,23.24
2022-08-12T21:37:53.155Z,23.24
2022-08-12T21:40:37.116Z,23.25
2022-08-12T21:43:21.193Z,23.24
2022-08-12T21:46:00.774Z,23.22
2022-08-12T21:48:33.672Z,23.24
2022-08-12T21:51:23.139Z,23.24
2022-08-12T21:54:06.872Z,23.22
2022-08-12T21:56:38.535Z,23.24
2022-08-12T21:59:13.660Z,23.23
2022-08-12T22:01:49.839Z,23.22
2022-08-12T22:04:39.269Z,23.19
2022-08-12T22:07:11.224Z,23.15
2022-08-12T22:09:43.879Z,23.14
2022-08-12T22:12:37.717Z,23.14
2022-08-12T22:15:08.764Z,23.12
2022-08-12T22:17:55.464Z,23.09
2022-08-12T22:20:29.325Z,23.06
2022-08-12T22:23:02.459Z,23.07
2022-08-12T22:25:35.519Z,23.08
2022-08-12T22:28:27.863Z,23.11
2022-08-12T22:31:09.756Z,23.11
2022-08-12T22:33:54.406Z,23.11
2022-08-12T22:36:31.099Z,23.08
2022-08-12T22:39:05.562Z,23.07
2022-08-12T22:41:57.642Z,23.03
2022-08-12T22:44:52.777Z,23.05
2022-08-12T22:47:53.127Z,23.06
2022-08-12T22:50:29.689Z,23.02
2022-08-12T22:53:17.830Z,22.97
2022-08-12T22:56:00.342Z,22.91
2022-08-12T22:58:40.582Z,22.88
2022-08-12T23:01:13.776Z,22.85
2022-08-12T23:03:53.854Z,22.83
2022-08-12T23:06:25.568Z,22.81
2022-08-12T23:08:58.458Z,22.77
2022-08-12T23:11:33.632Z,22.79
2022-08-12T23:14:08.042Z,22.79
2022-08-12T23:16:43.893Z,22.81
2022-08-12T23:19:17.768Z,22.82
2022-08-12T23:22:05.322Z,22.85
2022-08-12T23:24:56.225Z,22.86
2022-08-12T23:27:51.885Z,22.86
2022-08-12T23:30:32.215Z,22.83
2022-08-12T23:33:19.767Z,22.83
2022-08-12T23:36:02.214Z,22.82
2022-08-12T23:38:36.883Z,22.82
2022-08-12T23:41:16.005Z,22.81
2022-08-12T23:43:50.150Z,22.79
2022-08-12T23:46:22.921Z,22.75
2022-08-12T23:49:01.043Z,22.69
2022-08-12T23:51:32.196Z,22.66
2022-08-12T23:54:07.529Z,22.62
2022-08-12T23:56:39.458Z,22.56
2022-08-12T23:59:16.943Z,22.52
